createdAt,value
2019-04-26T00:00:14.040Z,16.20
2019-04-26T00:02:44.412Z,16.10
2019-04-26T00:05:12.966Z,16.20
2019-04-26T00:07:41.688Z,16.10
2019-04-26T00:10:14.327Z,16.10
2019-04-26T00:12:50.148Z,16.10
2019-04-26T00:15:36.746Z,16.10
2019-04-26T00:18:05.813Z,16.10
2019-04-26T00:20:34.174Z,16.10
2019-04-26T00:23:02.673Z,16.10
2019-04-26T00:25:31.075Z,16.10
2019-04-26T00:27:59.455Z,16.10
2019-04-26T00:30:27.858Z,16.10
2019-04-26T00:32:56.285Z,16.10
2019-04-26T00:35:24.708Z,16.10
2019-04-26T00:37:53.080Z,16.10
2019-04-26T00:40:22.451Z,16.10
2019-04-26T00:42:51.145Z,16.10
2019-04-26T00:45:20.861Z,16.10
2019-04-26T00:47:49.525Z,16.10
2019-04-26T00:50:19.076Z,16.10
2019-04-26T00:52:47.694Z,16.10
2019-04-26T00:55:16.212Z,16.10
2019-04-26T00:57:44.813Z,16.10
2019-04-26T01:00:15.221Z,16.00
2019-04-26T01:02:46.773Z,16.10
2019-04-26T01:05:15.943Z,16.00
2019-04-26T01:07:47.037Z,16.00
2019-04-26T01:10:16.634Z,16.10
2019-04-26T01:12:45.656Z,16.00
2019-04-26T01:15:15.908Z,16.00
2019-04-26T01:17:44.292Z,16.00
2019-04-26T01:20:12.706Z,15.90
2019-04-26T01:22:44.142Z,16.00
2019-04-26T01:25:32.504Z,16.00
2019-04-26T01:28:01.033Z,15.90
2019-04-26T01:30:29.583Z,15.90
2019-04-26T01:32:57.999Z,15.90
2019-04-26T01:35:26.429Z,15.90
2019-04-26T01:37:54.897Z,15.90
2019-04-26T01:40:26.060Z,15.80
2019-04-26T01:43:05.284Z,15.80
2019-04-26T01:45:38.258Z,15.80
2019-04-26T01:48:11.601Z,15.80
2019-04-26T01:50:39.948Z,15.80
2019-04-26T01:53:08.318Z,15.70
2019-04-26T01:55:36.783Z,15.80
2019-04-26T01:58:05.609Z,15.80
2019-04-26T02:00:41.904Z,15.80
2019-04-26T02:03:17.690Z,15.80
2019-04-26T02:05:46.081Z,15.80
2019-04-26T02:08:14.486Z,15.80
2019-04-26T02:10:42.909Z,15.80
2019-04-26T02:13:22.519Z,15.80
2019-04-26T02:15:52.015Z,15.90
2019-04-26T02:18:20.424Z,15.90
2019-04-26T02:20:55.637Z,15.90
2019-04-26T02:23:40.864Z,15.90
2019-04-26T02:26:28.276Z,15.80
2019-04-26T02:28:56.793Z,15.90
2019-04-26T02:31:26.777Z,15.80
2019-04-26T02:33:55.127Z,15.80
2019-04-26T02:36:23.492Z,15.80
2019-04-26T02:38:51.899Z,15.90
2019-04-26T02:41:20.309Z,15.90
2019-04-26T02:43:50.010Z,16.00
2019-04-26T02:46:20.000Z,15.90
2019-04-26T02:49:15.768Z,15.90
2019-04-26T02:51:56.658Z,15.90
2019-04-26T02:54:46.393Z,15.90
2019-04-26T02:57:21.007Z,15.90
2019-04-26T02:59:49.411Z,15.90
2019-04-26T03:02:22.528Z,15.80
2019-04-26T03:04:50.982Z,15.90
2019-04-26T03:07:31.454Z,15.90
2019-04-26T03:09:58.630Z,15.90
2019-04-26T03:12:28.962Z,15.90
2019-04-26T03:15:13.855Z,15.80
2019-04-26T03:17:43.132Z,15.90
2019-04-26T03:20:19.619Z,15.90
2019-04-26T03:22:48.962Z,15.90
2019-04-26T03:25:44.848Z,15.90
2019-04-26T03:28:28.382Z,15.80
2019-04-26T03:31:05.830Z,15.70
2019-04-26T03:34:11.722Z,15.80
2019-04-26T03:37:20.116Z,15.80
2019-04-26T03:40:21.999Z,15.80
2019-04-26T03:42:53.617Z,15.70
2019-04-26T03:45:56.950Z,15.60
2019-04-26T03:48:31.530Z,15.60
2019-04-26T03:51:05.911Z,15.60
2019-04-26T03:53:44.566Z,15.60
2019-04-26T03:56:24.344Z,15.60
2019-04-26T03:59:09.465Z,15.70
2019-04-26T04:01:40.871Z,15.70
2019-04-26T04:04:27.543Z,15.70
2019-04-26T04:07:03.846Z,15.70
2019-04-26T04:09:25.366Z,15.70
2019-04-26T04:12:11.420Z,15.70
2019-04-26T04:14:54.549Z,15.70
2019-04-26T04:17:27.873Z,15.80
2019-04-26T04:20:21.961Z,15.80
2019-04-26T04:23:14.906Z,15.80
2019-04-26T04:25:49.284Z,15.80
2019-04-26T04:28:26.922Z,15.80
2019-04-26T04:31:16.815Z,15.80
2019-04-26T04:34:09.932Z,15.90
2019-04-26T04:36:49.373Z,15.80
2019-04-26T04:39:26.077Z,15.80
2019-04-26T04:42:08.058Z,15.80
2019-04-26T04:45:03.554Z,15.90
2019-04-26T04:47:41.314Z,15.90
2019-04-26T04:50:17.110Z,15.90
2019-04-26T04:53:06.444Z,15.90
2019-04-26T04:55:58.264Z,15.90
2019-04-26T04:58:35.548Z,16.00
2019-04-26T05:01:17.389Z,16.00
2019-04-26T05:04:05.875Z,16.00
2019-04-26T05:07:06.042Z,16.10
2019-04-26T05:09:53.654Z,16.00
2019-04-26T05:12:25.255Z,16.00
2019-04-26T05:15:07.618Z,16.10
2019-04-26T05:17:46.128Z,16.00
2019-04-26T05:20:26.796Z,16.00
2019-04-26T05:23:10.842Z,16.10
2019-04-26T05:26:03.878Z,16.10
2019-04-26T05:28:53.832Z,16.00
2019-04-26T05:31:40.394Z,16.00
2019-04-26T05:34:19.400Z,16.00
2019-04-26T05:37:12.597Z,16.00
2019-04-26T05:39:51.147Z,16.00
2019-04-26T05:42:55.756Z,16.10
2019-04-26T05:45:29.085Z,16.00
2019-04-26T05:48:34.102Z,16.00
2019-04-26T05:51:10.380Z,16.00
2019-04-26T05:54:08.851Z,16.10
2019-04-26T05:56:48.275Z,16.00
2019-04-26T05:59:22.758Z,16.00
2019-04-26T06:02:23.343Z,16.00
2019-04-26T06:04:59.590Z,16.10
2019-04-26T06:07:41.805Z,16.20
2019-04-26T06:10:32.676Z,16.20
2019-04-26T06:13:23.829Z,16.30
2019-04-26T06:16:07.645Z,16.40
2019-04-26T06:18:57.395Z,16.40
2019-04-26T06:21:35.084Z,16.40
2019-04-26T06:24:27.903Z,16.50
2019-04-26T06:27:15.963Z,16.50
2019-04-26T06:29:54.061Z,16.40
2019-04-26T06:32:29.436Z,16.50
2019-04-26T06:35:10.110Z,16.50
2019-04-26T06:37:45.787Z,16.50
2019-04-26T06:40:17.587Z,16.60
2019-04-26T06:43:10.923Z,16.50
2019-04-26T06:45:50.698Z,16.70
2019-04-26T06:48:22.937Z,16.70
2019-04-26T06:51:03.198Z,16.80
2019-04-26T06:54:00.613Z,17.00
2019-04-26T06:56:42.954Z,17.10
2019-04-26T06:59:35.712Z,17.20
2019-04-26T07:02:08.974Z,17.40
2019-04-26T07:05:03.192Z,17.40
2019-04-26T07:08:06.874Z,17.40
2019-04-26T07:10:47.656Z,17.50
2019-04-26T07:13:44.930Z,17.50
2019-04-26T07:16:23.342Z,17.70
2019-04-26T07:19:04.096Z,17.70
2019-04-26T07:22:34.773Z,17.80
2019-04-26T07:25:17.708Z,17.90
2019-04-26T07:28:20.655Z,17.90
2019-04-26T07:30:54.987Z,17.80
2019-04-26T07:33:29.689Z,17.70
2019-04-26T07:36:10.140Z,17.70
2019-04-26T07:38:55.474Z,17.70
2019-04-26T07:41:34.222Z,17.80
2019-04-26T07:44:16.019Z,17.90
2019-04-26T07:46:53.836Z,18.00
2019-04-26T07:49:59.194Z,18.20
2019-04-26T07:52:30.783Z,18.20
2019-04-26T07:55:11.374Z,18.10
2019-04-26T07:57:48.640Z,18.20
2019-04-26T08:00:27.393Z,18.20
2019-04-26T08:03:09.465Z,18.30
2019-04-26T08:05:48.079Z,18.20
2019-04-26T08:08:18.497Z,18.30
2019-04-26T08:10:56.119Z,18.30
2019-04-26T08:13:24.519Z,18.40
2019-04-26T08:16:00.772Z,18.50
2019-04-26T08:18:56.517Z,18.50
2019-04-26T08:21:26.625Z,18.70
2019-04-26T08:23:57.808Z,18.70
2019-04-26T08:26:26.406Z,18.80
2019-04-26T08:28:56.605Z,18.80
2019-04-26T08:31:27.199Z,18.80
2019-04-26T08:33:59.390Z,18.80
2019-04-26T08:36:28.693Z,18.80
2019-04-26T08:38:57.196Z,18.90
2019-04-26T08:41:25.626Z,18.90
2019-04-26T08:44:08.617Z,18.90
2019-04-26T08:46:58.320Z,18.90
2019-04-26T08:49:37.428Z,18.90
2019-04-26T08:52:13.678Z,18.90
2019-04-26T08:54:33.902Z,19.00
2019-04-26T08:57:05.942Z,19.00
2019-04-26T08:59:39.475Z,19.10
2019-04-26T09:02:14.126Z,19.10
2019-04-26T09:04:44.981Z,19.10
2019-04-26T09:07:21.128Z,19.20
2019-04-26T09:09:57.183Z,19.30
2019-04-26T09:12:23.274Z,19.30
2019-04-26T09:14:52.419Z,19.40
2019-04-26T09:17:20.897Z,19.60
2019-04-26T09:19:49.469Z,19.70
2019-04-26T09:22:26.545Z,19.80
2019-04-26T09:24:59.304Z,19.90
2019-04-26T09:27:43.785Z,20.00
2019-04-26T09:30:16.813Z,20.10
2019-04-26T09:32:46.849Z,20.00
2019-04-26T09:35:16.333Z,19.90
2019-04-26T09:37:44.872Z,19.90
2019-04-26T09:40:19.744Z,19.80
2019-04-26T09:42:48.257Z,19.80
2019-04-26T09:45:20.899Z,19.80
2019-04-26T09:50:55.741Z,19.80
2019-04-26T09:53:24.060Z,19.80
2019-04-26T09:55:52.446Z,19.80
2019-04-26T09:58:20.853Z,19.80
2019-04-26T10:00:50.286Z,19.90
2019-04-26T10:03:18.678Z,19.90
2019-04-26T10:05:47.080Z,19.90
2019-04-26T10:08:15.550Z,20.00
2019-04-26T10:10:44.030Z,20.00
2019-04-26T10:13:32.318Z,20.00
2019-04-26T10:16:18.634Z,20.10
2019-04-26T10:18:48.748Z,20.10
2019-04-26T10:21:17.119Z,20.10
2019-04-26T10:23:45.539Z,20.20
2019-04-26T10:26:14.025Z,20.30
2019-04-26T10:28:42.417Z,20.30
2019-04-26T10:31:13.443Z,20.30
2019-04-26T10:33:41.951Z,20.30
2019-04-26T10:36:10.250Z,20.40
2019-04-26T10:38:38.642Z,20.40
2019-04-26T10:41:07.136Z,20.40
2019-04-26T10:43:35.468Z,20.40
2019-04-26T10:46:04.485Z,20.50
2019-04-26T10:48:32.930Z,20.50
2019-04-26T10:51:03.398Z,20.60
2019-04-26T10:53:32.953Z,20.60
2019-04-26T10:56:11.996Z,20.60
2019-04-26T10:58:45.143Z,20.70
2019-04-26T11:01:15.188Z,20.70
2019-04-26T11:03:43.692Z,20.80
2019-04-26T11:06:12.062Z,20.80
2019-04-26T11:08:40.490Z,20.80
2019-04-26T11:11:09.324Z,20.80
2019-04-26T11:13:37.656Z,20.80
2019-04-26T11:16:07.124Z,20.90
2019-04-26T11:18:36.188Z,20.90
2019-04-26T11:21:04.554Z,21.00
2019-04-26T11:23:32.945Z,21.00
2019-04-26T11:26:02.669Z,21.00
2019-04-26T11:28:31.446Z,21.00
2019-04-26T11:30:59.878Z,21.00
2019-04-26T11:33:28.291Z,21.00
2019-04-26T11:35:56.731Z,21.00
2019-04-26T11:38:26.850Z,21.10
2019-04-26T11:41:05.791Z,21.30
2019-04-26T11:43:25.302Z,21.40
2019-04-26T11:46:03.797Z,21.50
2019-04-26T11:48:25.432Z,21.60
2019-04-26T11:50:53.789Z,21.70
2019-04-26T11:53:22.146Z,21.80
2019-04-26T11:55:50.492Z,21.80
2019-04-26T11:58:22.489Z,21.80
2019-04-26T12:00:53.386Z,21.80
2019-04-26T12:03:24.900Z,21.80
2019-04-26T12:05:53.467Z,21.80
2019-04-26T12:08:26.445Z,21.80
2019-04-26T12:10:54.802Z,21.90
2019-04-26T12:13:25.113Z,21.90
2019-04-26T12:15:53.663Z,22.00
2019-04-26T12:18:22.044Z,22.10
2019-04-26T12:20:50.422Z,22.10
2019-04-26T12:23:20.821Z,22.00
2019-04-26T12:25:48.850Z,22.00
2019-04-26T12:28:17.168Z,22.30
2019-04-26T12:30:45.587Z,22.60
2019-04-26T12:33:14.014Z,23.10
2019-04-26T12:35:42.408Z,23.70
2019-04-26T12:38:10.798Z,24.20
2019-04-26T12:40:42.303Z,24.20
2019-04-26T12:43:09.256Z,24.30
2019-04-26T12:45:47.465Z,24.50
2019-04-26T12:48:16.846Z,24.80
2019-04-26T12:50:45.351Z,25.00
2019-04-26T12:53:13.865Z,25.60
2019-04-26T12:55:42.279Z,25.90
2019-04-26T12:58:11.100Z,26.20
2019-04-26T13:00:53.138Z,26.50
2019-04-26T13:03:20.267Z,26.60
2019-04-26T13:05:40.862Z,26.60
2019-04-26T13:08:09.289Z,26.80
2019-04-26T13:10:45.275Z,26.90
2019-04-26T13:13:51.061Z,27.20
2019-04-26T13:16:27.825Z,27.60
2019-04-26T13:18:56.359Z,27.80
2019-04-26T13:21:24.812Z,27.90
2019-04-26T13:23:53.405Z,28.10
2019-04-26T13:26:21.791Z,28.10
2019-04-26T13:28:52.414Z,28.20
2019-04-26T13:31:20.251Z,28.20
2019-04-26T13:33:48.661Z,28.30
2019-04-26T13:36:17.085Z,28.50
2019-04-26T13:38:45.596Z,28.60
2019-04-26T13:41:13.989Z,28.60
2019-04-26T13:43:44.652Z,28.70
2019-04-26T13:46:26.128Z,28.90
2019-04-26T13:48:58.865Z,29.20
2019-04-26T13:51:28.946Z,29.50
2019-04-26T13:53:57.341Z,29.80
2019-04-26T13:56:25.747Z,29.80
2019-04-26T13:58:57.837Z,30.40
2019-04-26T14:01:24.452Z,30.60
2019-04-26T14:03:52.900Z,30.90
2019-04-26T14:06:21.266Z,30.90
2019-04-26T14:08:49.657Z,30.70
2019-04-26T14:11:20.498Z,30.80
2019-04-26T14:13:48.133Z,31.00
2019-04-26T14:16:17.111Z,31.40
2019-04-26T14:18:46.585Z,31.10
2019-04-26T14:21:14.940Z,30.80
2019-04-26T14:23:45.324Z,30.50
2019-04-26T14:26:28.648Z,29.70
2019-04-26T14:28:58.197Z,28.90
2019-04-26T14:31:27.213Z,27.90
2019-04-26T14:33:56.628Z,27.40
2019-04-26T14:36:26.836Z,26.80
2019-04-26T14:39:05.249Z,26.30
2019-04-26T14:41:25.129Z,25.80
2019-04-26T14:43:56.686Z,25.50
2019-04-26T14:46:23.673Z,25.30
2019-04-26T14:49:01.384Z,25.10
2019-04-26T14:51:22.089Z,24.90
2019-04-26T14:53:50.562Z,24.60
2019-04-26T14:56:18.942Z,24.40
2019-04-26T14:58:47.402Z,24.20
2019-04-26T15:01:35.216Z,24.10
2019-04-26T15:04:23.133Z,24.00
2019-04-26T15:06:57.920Z,24.00
2019-04-26T15:09:29.807Z,23.80
2019-04-26T15:11:58.601Z,23.60
2019-04-26T15:14:23.383Z,23.40
2019-04-26T15:16:51.836Z,23.20
2019-04-26T15:19:20.175Z,23.10
2019-04-26T15:21:48.588Z,23.00
2019-04-26T15:24:17.041Z,22.80
2019-04-26T15:26:45.430Z,22.60
2019-04-26T15:29:13.822Z,22.50
2019-04-26T15:31:42.367Z,22.40
2019-04-26T15:34:12.153Z,22.20
2019-04-26T15:36:43.346Z,22.10
2019-04-26T15:39:16.943Z,22.10
2019-04-26T15:41:47.162Z,22.10
2019-04-26T15:44:32.736Z,22.10
2019-04-26T15:47:05.528Z,21.80
2019-04-26T15:49:36.700Z,21.10
2019-04-26T15:52:04.849Z,20.50
2019-04-26T15:54:33.265Z,20.10
2019-04-26T15:57:02.108Z,19.80
2019-04-26T15:59:30.616Z,19.80
2019-04-26T16:01:58.904Z,19.70
2019-04-26T16:04:27.231Z,19.80
2019-04-26T16:06:55.646Z,19.80
2019-04-26T16:09:24.039Z,19.90
2019-04-26T16:11:53.163Z,20.10
2019-04-26T16:14:26.448Z,20.10
2019-04-26T16:16:52.571Z,20.10
2019-04-26T16:19:20.883Z,20.00
2019-04-26T16:21:52.690Z,20.00
2019-04-26T16:24:20.520Z,20.10
2019-04-26T16:26:55.662Z,20.10
2019-04-26T16:29:24.480Z,20.10
2019-04-26T16:32:12.391Z,20.00
2019-04-26T16:34:48.840Z,20.00
2019-04-26T16:37:21.786Z,20.00
2019-04-26T16:39:48.715Z,20.00
2019-04-26T16:42:16.744Z,20.10
2019-04-26T16:44:45.169Z,20.20
2019-04-26T16:47:14.706Z,20.30
2019-04-26T16:49:46.246Z,20.30
2019-04-26T16:52:14.016Z,20.30
2019-04-26T16:54:43.050Z,20.30
2019-04-26T16:57:12.458Z,20.30
2019-04-26T16:59:49.069Z,20.20
2019-04-26T17:02:12.986Z,20.30
2019-04-26T17:04:43.378Z,20.20
2019-04-26T17:07:13.274Z,20.20
2019-04-26T17:09:55.760Z,20.20
2019-04-26T17:12:14.876Z,20.20
2019-04-26T17:14:47.678Z,20.20
2019-04-26T17:17:13.634Z,20.10
2019-04-26T17:19:43.099Z,20.10
2019-04-26T17:22:15.630Z,20.10
2019-04-26T17:24:51.058Z,20.10
2019-04-26T17:27:22.679Z,20.10
2019-04-26T17:29:52.594Z,20.10
2019-04-26T17:32:21.174Z,20.20
2019-04-26T17:34:49.647Z,20.20
2019-04-26T17:37:21.872Z,20.10
2019-04-26T17:39:52.248Z,20.10
2019-04-26T17:42:18.116Z,20.00
2019-04-26T17:44:46.548Z,20.00
2019-04-26T17:47:14.897Z,19.90
2019-04-26T17:49:44.039Z,19.90
2019-04-26T17:52:12.504Z,19.80
2019-04-26T17:54:47.016Z,19.80
2019-04-26T17:57:14.635Z,19.80
2019-04-26T17:59:47.469Z,19.60
2019-04-26T18:02:20.610Z,19.60
2019-04-26T18:04:42.996Z,19.40
2019-04-26T18:07:34.620Z,19.40
2019-04-26T18:09:45.864Z,19.40
2019-04-26T18:12:11.877Z,19.20
2019-04-26T18:14:40.274Z,19.10
2019-04-26T18:17:13.377Z,19.00
2019-04-26T18:20:00.700Z,19.00
2019-04-26T18:22:36.191Z,19.00
2019-04-26T18:25:11.065Z,18.90
2019-04-26T18:27:38.730Z,18.80
2019-04-26T18:30:11.479Z,18.80
2019-04-26T18:32:42.163Z,18.60
2019-04-26T18:35:09.147Z,18.50
2019-04-26T18:37:39.468Z,18.50
2019-04-26T18:40:07.705Z,18.50
2019-04-26T18:42:37.698Z,18.50
2019-04-26T18:45:07.704Z,18.40
2019-04-26T18:47:37.734Z,18.30
2019-04-26T18:50:06.955Z,18.30
2019-04-26T18:52:37.689Z,18.20
2019-04-26T18:55:07.893Z,18.20
2019-04-26T18:57:36.254Z,18.10
2019-04-26T19:00:07.625Z,18.00
2019-04-26T19:02:35.982Z,18.00
2019-04-26T19:05:05.678Z,17.90
2019-04-26T19:07:34.096Z,17.80
2019-04-26T19:10:05.096Z,17.80
2019-04-26T19:12:32.675Z,17.70
2019-04-26T19:15:07.535Z,17.60
2019-04-26T19:17:46.557Z,17.60
2019-04-26T19:20:33.225Z,17.50
2019-04-26T19:23:03.083Z,17.50
2019-04-26T19:25:34.470Z,17.50
2019-04-26T19:28:04.347Z,17.50
2019-04-26T19:30:31.670Z,17.40
2019-04-26T19:33:02.099Z,17.40
2019-04-26T19:35:30.652Z,17.20
2019-04-26T19:37:59.007Z,17.20
2019-04-26T19:40:27.657Z,17.20
2019-04-26T19:42:57.456Z,17.20
2019-04-26T19:45:47.063Z,17.10
2019-04-26T19:48:20.607Z,17.10
2019-04-26T19:50:52.684Z,17.10
2019-04-26T19:53:37.818Z,17.00
2019-04-26T19:58:42.153Z,17.00
2019-04-26T20:01:12.281Z,16.90
2019-04-26T20:03:43.028Z,16.90
2019-04-26T20:06:14.059Z,16.90
2019-04-26T20:08:44.405Z,16.80
2019-04-26T20:11:14.386Z,16.80
2019-04-26T20:13:42.564Z,16.80
2019-04-26T20:16:11.202Z,16.80
2019-04-26T20:18:39.860Z,16.70
2019-04-26T20:21:12.627Z,16.70
2019-04-26T20:23:42.951Z,16.70
2019-04-26T20:26:09.027Z,16.60
2019-04-26T20:28:37.603Z,16.60
2019-04-26T20:31:12.188Z,16.60
2019-04-26T20:33:42.255Z,16.50
2019-04-26T20:36:10.533Z,16.50
2019-04-26T20:38:45.512Z,16.50
2019-04-26T20:41:09.419Z,16.40
2019-04-26T20:43:45.598Z,16.40
2019-04-26T20:46:14.807Z,16.30
2019-04-26T20:48:39.350Z,16.20
2019-04-26T20:51:11.033Z,16.30
2019-04-26T20:53:41.351Z,16.30
2019-04-26T20:56:09.939Z,16.30
2019-04-26T20:58:43.136Z,16.20
2019-04-26T21:01:12.500Z,16.10
2019-04-26T21:03:42.893Z,16.10
2019-04-26T21:06:09.173Z,16.00
2019-04-26T21:08:37.569Z,15.90
2019-04-26T21:11:05.987Z,15.80
2019-04-26T21:13:34.392Z,15.70
2019-04-26T21:16:10.385Z,15.50
2019-04-26T21:18:39.872Z,15.40
2019-04-26T21:21:05.935Z,15.30
2019-04-26T21:23:39.611Z,15.30
2019-04-26T21:26:21.629Z,15.20
2019-04-26T21:29:15.411Z,15.20
2019-04-26T21:31:45.490Z,15.20
2019-04-26T21:34:19.054Z,15.10
2019-04-26T21:36:55.109Z,15.10
2019-04-26T21:39:28.131Z,15.00
2019-04-26T21:42:00.924Z,15.00
2019-04-26T21:44:29.228Z,15.00
2019-04-26T21:46:58.919Z,15.00
2019-04-26T21:49:27.656Z,15.00
2019-04-26T21:51:56.022Z,14.90
2019-04-26T21:54:25.201Z,14.90
2019-04-26T21:56:53.830Z,14.90
2019-04-26T21:59:22.259Z,14.90
2019-04-26T22:01:52.312Z,14.80
2019-04-26T22:04:20.628Z,14.80
2019-04-26T22:06:49.070Z,14.70
2019-04-26T22:09:28.536Z,14.70
2019-04-26T22:11:56.468Z,14.60
2019-04-26T22:14:43.382Z,14.50
2019-04-26T22:17:13.645Z,14.60
2019-04-26T22:20:00.707Z,14.60
2019-04-26T22:22:37.236Z,14.60
2019-04-26T22:25:04.346Z,14.60
2019-04-26T22:27:32.735Z,14.50
2019-04-26T22:30:03.181Z,14.40
2019-04-26T22:32:33.281Z,14.40
2019-04-26T22:35:03.171Z,14.30
2019-04-26T22:37:33.593Z,14.30
2019-04-26T22:40:03.555Z,14.30
2019-04-26T22:42:39.954Z,14.20
2019-04-26T22:45:09.338Z,14.20
2019-04-26T22:47:42.760Z,14.20
2019-04-26T22:50:15.126Z,14.10
2019-04-26T22:52:46.634Z,14.10
2019-04-26T22:55:11.465Z,14.00
2019-04-26T22:57:39.783Z,14.00
2019-04-26T23:00:08.202Z,14.00
2019-04-26T23:02:36.629Z,14.00
2019-04-26T23:05:06.367Z,13.90
2019-04-26T23:07:34.898Z,13.90
2019-04-26T23:10:04.210Z,13.80
2019-04-26T23:15:04.074Z,13.90
2019-04-26T23:17:50.611Z,13.80
2019-04-26T23:20:29.147Z,13.90
2019-04-26T23:23:00.574Z,13.60
2019-04-26T23:25:27.781Z,13.50
2019-04-26T23:27:58.281Z,13.50
2019-04-26T23:30:27.635Z,13.60
2019-04-26T23:32:56.375Z,13.60
2019-04-26T23:35:24.817Z,13.60
2019-04-26T23:37:56.518Z,13.60
2019-04-26T23:40:25.654Z,13.50
2019-04-26T23:42:54.470Z,13.40
2019-04-26T23:45:23.155Z,13.40
2019-04-26T23:47:52.996Z,13.30
2019-04-26T23:50:21.488Z,13.20
2019-04-26T23:52:50.424Z,13.30
2019-04-26T23:55:18.917Z,13.30
2019-04-26T23:57:47.425Z,13.30
